sensor_id;sensor_type;location;lat;lon;timestamp;P1;durP1;ratioP1;P2;durP2;ratioP2
70467;SDS011;57934;51.532;7.684;2022-07-29T00:01:16;4.85;;;1.70;;
70467;SDS011;57934;51.532;7.684;2022-07-29T00:03:42;5.05;;;1.52;;
70467;SDS011;57934;51.532;7.684;2022-07-29T00:06:08;8.18;;;1.70;;
70467;SDS011;57934;51.532;7.684;2022-07-29T00:08:34;7.32;;;2.20;;
70467;SDS011;57934;51.532;7.684;2022-07-29T00:11:01;7.43;;;1.75;;
70467;SDS011;57934;51.532;7.684;2022-07-29T00:13:27;7.47;;;1.83;;
70467;SDS011;57934;51.532;7.684;2022-07-29T00:15:53;7.97;;;1.60;;
70467;SDS011;57934;51.532;7.684;2022-07-29T00:18:19;8.93;;;1.50;;
70467;SDS011;57934;51.532;7.684;2022-07-29T00:20:45;7.05;;;2.58;;
70467;SDS011;57934;51.532;7.684;2022-07-29T00:23:11;4.78;;;1.60;;
70467;SDS011;57934;51.532;7.684;2022-07-29T00:25:37;5.22;;;1.45;;
70467;SDS011;57934;51.532;7.684;2022-07-29T00:28:03;6.20;;;2.47;;
70467;SDS011;57934;51.532;7.684;2022-07-29T00:30:30;15.85;;;2.90;;
70467;SDS011;57934;51.532;7.684;2022-07-29T00:32:56;9.70;;;1.60;;
70467;SDS011;57934;51.532;7.684;2022-07-29T00:35:22;7.30;;;1.60;;
70467;SDS011;57934;51.532;7.684;2022-07-29T00:38:07;6.25;;;1.90;;
70467;SDS011;57934;51.532;7.684;2022-07-29T00:40:33;4.63;;;1.65;;
70467;SDS011;57934;51.532;7.684;2022-07-29T00:42:59;5.85;;;1.60;;
70467;SDS011;57934;51.532;7.684;2022-07-29T00:45:25;4.88;;;1.50;;
70467;SDS011;57934;51.532;7.684;2022-07-29T00:47:51;7.88;;;2.05;;
70467;SDS011;57934;51.532;7.684;2022-07-29T00:50:17;7.68;;;1.58;;
70467;SDS011;57934;51.532;7.684;2022-07-29T00:52:43;8.63;;;1.90;;
70467;SDS011;57934;51.532;7.684;2022-07-29T00:55:14;7.38;;;1.70;;
70467;SDS011;57934;51.532;7.684;2022-07-29T00:57:42;12.98;;;1.63;;
70467;SDS011;57934;51.532;7.684;2022-07-29T01:00:10;7.05;;;1.75;;
70467;SDS011;57934;51.532;7.684;2022-07-29T01:02:38;11.32;;;1.80;;
70467;SDS011;57934;51.532;7.684;2022-07-29T01:05:04;7.18;;;2.22;;
70467;SDS011;57934;51.532;7.684;2022-07-29T01:07:34;10.32;;;2.03;;
70467;SDS011;57934;51.532;7.684;2022-07-29T01:10:03;4.15;;;1.70;;
70467;SDS011;57934;51.532;7.684;2022-07-29T01:12:31;8.82;;;1.70;;
70467;SDS011;57934;51.532;7.684;2022-07-29T01:15:04;8.45;;;2.08;;
70467;SDS011;57934;51.532;7.684;2022-07-29T01:17:34;5.35;;;1.73;;
70467;SDS011;57934;51.532;7.684;2022-07-29T01:20:04;9.25;;;1.75;;
70467;SDS011;57934;51.532;7.684;2022-07-29T01:22:42;4.57;;;1.63;;
70467;SDS011;57934;51.532;7.684;2022-07-29T01:25:38;6.75;;;1.90;;
70467;SDS011;57934;51.532;7.684;2022-07-29T01:31:03;8.40;;;1.75;;
70467;SDS011;57934;51.532;7.684;2022-07-29T01:33:31;4.70;;;1.70;;
70467;SDS011;57934;51.532;7.684;2022-07-29T01:36:40;3.58;;;1.58;;
70467;SDS011;57934;51.532;7.684;2022-07-29T01:39:16;10.23;;;1.70;;
70467;SDS011;57934;51.532;7.684;2022-07-29T01:45:06;5.78;;;1.40;;
70467;SDS011;57934;51.532;7.684;2022-07-29T01:47:53;6.78;;;1.70;;
70467;SDS011;57934;51.532;7.684;2022-07-29T01:50:20;6.13;;;1.48;;
70467;SDS011;57934;51.532;7.684;2022-07-29T01:52:53;9.80;;;2.00;;
70467;SDS011;57934;51.532;7.684;2022-07-29T01:55:22;6.82;;;1.80;;
70467;SDS011;57934;51.532;7.684;2022-07-29T01:57:52;13.05;;;1.88;;
70467;SDS011;57934;51.532;7.684;2022-07-29T02:00:20;9.18;;;1.88;;
70467;SDS011;57934;51.532;7.684;2022-07-29T02:02:48;6.45;;;1.90;;
70467;SDS011;57934;51.532;7.684;2022-07-29T02:05:15;4.13;;;1.50;;
70467;SDS011;57934;51.532;7.684;2022-07-29T02:07:44;4.57;;;1.70;;
70467;SDS011;57934;51.532;7.684;2022-07-29T02:10:13;4.35;;;1.88;;
70467;SDS011;57934;51.532;7.684;2022-07-29T02:12:42;5.72;;;1.65;;
70467;SDS011;57934;51.532;7.684;2022-07-29T02:15:10;5.35;;;2.05;;
70467;SDS011;57934;51.532;7.684;2022-07-29T02:17:43;6.82;;;2.45;;
70467;SDS011;57934;51.532;7.684;2022-07-29T02:20:13;5.72;;;1.90;;
70467;SDS011;57934;51.532;7.684;2022-07-29T02:22:41;7.03;;;1.88;;
70467;SDS011;57934;51.532;7.684;2022-07-29T02:25:10;5.50;;;1.70;;
70467;SDS011;57934;51.532;7.684;2022-07-29T02:27:37;4.60;;;1.42;;
70467;SDS011;57934;51.532;7.684;2022-07-29T02:30:05;2.08;;;1.50;;
70467;SDS011;57934;51.532;7.684;2022-07-29T02:32:34;7.60;;;1.60;;
70467;SDS011;57934;51.532;7.684;2022-07-29T02:35:03;9.60;;;1.77;;
70467;SDS011;57934;51.532;7.684;2022-07-29T02:37:30;7.13;;;1.83;;
70467;SDS011;57934;51.532;7.684;2022-07-29T02:39:57;4.38;;;1.40;;
70467;SDS011;57934;51.532;7.684;2022-07-29T02:42:26;6.03;;;1.92;;
70467;SDS011;57934;51.532;7.684;2022-07-29T02:44:53;7.20;;;1.90;;
70467;SDS011;57934;51.532;7.684;2022-07-29T02:47:24;6.97;;;1.67;;
70467;SDS011;57934;51.532;7.684;2022-07-29T02:50:00;5.90;;;2.25;;
70467;SDS011;57934;51.532;7.684;2022-07-29T02:55:06;7.43;;;1.80;;
70467;SDS011;57934;51.532;7.684;2022-07-29T02:57:59;4.57;;;1.67;;
70467;SDS011;57934;51.532;7.684;2022-07-29T03:00:29;4.88;;;1.80;;
70467;SDS011;57934;51.532;7.684;2022-07-29T03:02:58;7.78;;;1.83;;
70467;SDS011;57934;51.532;7.684;2022-07-29T03:05:26;7.68;;;1.52;;
70467;SDS011;57934;51.532;7.684;2022-07-29T03:07:54;9.23;;;1.80;;
70467;SDS011;57934;51.532;7.684;2022-07-29T03:10:23;5.00;;;1.77;;
70467;SDS011;57934;51.532;7.684;2022-07-29T03:12:51;8.02;;;1.88;;
70467;SDS011;57934;51.532;7.684;2022-07-29T03:15:18;2.95;;;1.70;;
70467;SDS011;57934;51.532;7.684;2022-07-29T03:17:45;9.82;;;1.90;;
70467;SDS011;57934;51.532;7.684;2022-07-29T03:20:11;12.10;;;2.20;;
70467;SDS011;57934;51.532;7.684;2022-07-29T03:22:42;7.75;;;1.85;;
70467;SDS011;57934;51.532;7.684;2022-07-29T03:25:10;6.85;;;2.00;;
70467;SDS011;57934;51.532;7.684;2022-07-29T03:27:37;7.07;;;1.50;;
70467;SDS011;57934;51.532;7.684;2022-07-29T03:30:03;5.45;;;1.70;;
70467;SDS011;57934;51.532;7.684;2022-07-29T03:32:30;3.75;;;1.80;;
70467;SDS011;57934;51.532;7.684;2022-07-29T03:34:56;5.43;;;1.73;;
70467;SDS011;57934;51.532;7.684;2022-07-29T03:37:22;7.60;;;1.70;;
70467;SDS011;57934;51.532;7.684;2022-07-29T03:39:48;7.68;;;1.77;;
70467;SDS011;57934;51.532;7.684;2022-07-29T03:42:16;5.65;;;1.85;;
70467;SDS011;57934;51.532;7.684;2022-07-29T03:44:47;5.07;;;1.77;;
70467;SDS011;57934;51.532;7.684;2022-07-29T03:47:14;5.80;;;1.88;;
70467;SDS011;57934;51.532;7.684;2022-07-29T03:49:44;9.27;;;2.08;;
70467;SDS011;57934;51.532;7.684;2022-07-29T03:52:14;5.72;;;1.67;;
70467;SDS011;57934;51.532;7.684;2022-07-29T03:54:40;5.38;;;2.10;;
70467;SDS011;57934;51.532;7.684;2022-07-29T03:57:07;7.82;;;1.70;;
70467;SDS011;57934;51.532;7.684;2022-07-29T03:59:36;9.93;;;2.53;;
70467;SDS011;57934;51.532;7.684;2022-07-29T04:02:06;4.65;;;1.90;;
70467;SDS011;57934;51.532;7.684;2022-07-29T04:04:36;9.73;;;1.90;;
70467;SDS011;57934;51.532;7.684;2022-07-29T04:07:03;11.48;;;2.08;;
70467;SDS011;57934;51.532;7.684;2022-07-29T04:09:29;8.63;;;1.70;;
70467;SDS011;57934;51.532;7.684;2022-07-29T04:11:56;7.15;;;1.80;;
70467;SDS011;57934;51.532;7.684;2022-07-29T04:14:22;7.97;;;2.00;;
70467;SDS011;57934;51.532;7.684;2022-07-29T04:16:48;5.57;;;1.90;;
70467;SDS011;57934;51.532;7.684;2022-07-29T04:19:14;8.70;;;2.15;;
70467;SDS011;57934;51.532;7.684;2022-07-29T04:21:40;13.85;;;2.15;;
70467;SDS011;57934;51.532;7.684;2022-07-29T04:24:07;11.10;;;2.30;;
70467;SDS011;57934;51.532;7.684;2022-07-29T04:26:33;9.02;;;1.80;;
70467;SDS011;57934;51.532;7.684;2022-07-29T04:29:00;8.57;;;1.83;;
70467;SDS011;57934;51.532;7.684;2022-07-29T04:31:26;12.13;;;1.83;;
70467;SDS011;57934;51.532;7.684;2022-07-29T04:33:53;8.48;;;1.77;;
70467;SDS011;57934;51.532;7.684;2022-07-29T04:36:19;3.38;;;1.77;;
70467;SDS011;57934;51.532;7.684;2022-07-29T04:38:45;6.65;;;2.13;;
70467;SDS011;57934;51.532;7.684;2022-07-29T04:41:11;4.80;;;2.30;;
70467;SDS011;57934;51.532;7.684;2022-07-29T04:43:37;6.07;;;1.90;;
70467;SDS011;57934;51.532;7.684;2022-07-29T04:46:03;8.70;;;2.40;;
70467;SDS011;57934;51.532;7.684;2022-07-29T04:48:31;9.10;;;2.30;;
70467;SDS011;57934;51.532;7.684;2022-07-29T04:50:58;5.05;;;2.22;;
70467;SDS011;57934;51.532;7.684;2022-07-29T04:53:24;13.82;;;2.75;;
70467;SDS011;57934;51.532;7.684;2022-07-29T04:55:50;7.88;;;2.45;;
70467;SDS011;57934;51.532;7.684;2022-07-29T04:58:17;6.13;;;2.22;;
70467;SDS011;57934;51.532;7.684;2022-07-29T05:00:43;11.50;;;2.70;;
70467;SDS011;57934;51.532;7.684;2022-07-29T05:03:09;6.82;;;2.15;;
70467;SDS011;57934;51.532;7.684;2022-07-29T05:05:35;7.47;;;2.40;;
70467;SDS011;57934;51.532;7.684;2022-07-29T05:08:02;5.30;;;2.13;;
70467;SDS011;57934;51.532;7.684;2022-07-29T05:10:28;10.68;;;2.08;;
70467;SDS011;57934;51.532;7.684;2022-07-29T05:12:55;3.58;;;2.10;;
70467;SDS011;57934;51.532;7.684;2022-07-29T05:15:20;5.68;;;1.85;;
70467;SDS011;57934;51.532;7.684;2022-07-29T05:17:47;11.10;;;2.40;;
70467;SDS011;57934;51.532;7.684;2022-07-29T05:20:14;7.57;;;2.00;;
70467;SDS011;57934;51.532;7.684;2022-07-29T05:22:57;8.18;;;2.05;;
70467;SDS011;57934;51.532;7.684;2022-07-29T05:25:26;5.05;;;1.90;;
70467;SDS011;57934;51.532;7.684;2022-07-29T05:27:53;8.10;;;1.73;;
70467;SDS011;57934;51.532;7.684;2022-07-29T05:30:19;6.10;;;2.13;;
70467;SDS011;57934;51.532;7.684;2022-07-29T05:32:45;4.72;;;1.98;;
70467;SDS011;57934;51.532;7.684;2022-07-29T05:35:12;7.93;;;2.00;;
70467;SDS011;57934;51.532;7.684;2022-07-29T05:37:39;9.20;;;2.08;;
70467;SDS011;57934;51.532;7.684;2022-07-29T05:40:06;5.47;;;1.65;;
70467;SDS011;57934;51.532;7.684;2022-07-29T05:42:34;7.05;;;1.90;;
70467;SDS011;57934;51.532;7.684;2022-07-29T05:45:00;5.90;;;2.38;;
70467;SDS011;57934;51.532;7.684;2022-07-29T05:47:27;8.65;;;2.42;;
70467;SDS011;57934;51.532;7.684;2022-07-29T05:49:53;9.50;;;2.28;;
70467;SDS011;57934;51.532;7.684;2022-07-29T05:52:20;5.88;;;2.15;;
70467;SDS011;57934;51.532;7.684;2022-07-29T05:54:46;6.57;;;2.13;;
70467;SDS011;57934;51.532;7.684;2022-07-29T05:57:21;10.52;;;2.30;;
70467;SDS011;57934;51.532;7.684;2022-07-29T05:59:48;9.18;;;2.67;;
70467;SDS011;57934;51.532;7.684;2022-07-29T06:02:15;5.43;;;2.00;;
70467;SDS011;57934;51.532;7.684;2022-07-29T06:04:42;8.40;;;2.35;;
70467;SDS011;57934;51.532;7.684;2022-07-29T06:07:10;5.38;;;2.00;;
70467;SDS011;57934;51.532;7.684;2022-07-29T06:09:36;7.50;;;2.28;;
70467;SDS011;57934;51.532;7.684;2022-07-29T06:12:03;5.35;;;2.30;;
70467;SDS011;57934;51.532;7.684;2022-07-29T06:14:29;7.10;;;2.10;;
70467;SDS011;57934;51.532;7.684;2022-07-29T06:16:55;5.88;;;1.88;;
70467;SDS011;57934;51.532;7.684;2022-07-29T06:19:21;5.82;;;1.83;;
70467;SDS011;57934;51.532;7.684;2022-07-29T06:21:47;5.57;;;2.00;;
70467;SDS011;57934;51.532;7.684;2022-07-29T06:24:14;7.40;;;2.22;;
70467;SDS011;57934;51.532;7.684;2022-07-29T06:26:41;5.35;;;1.83;;
70467;SDS011;57934;51.532;7.684;2022-07-29T06:29:07;4.75;;;1.70;;
70467;SDS011;57934;51.532;7.684;2022-07-29T06:31:34;11.93;;;2.22;;
70467;SDS011;57934;51.532;7.684;2022-07-29T06:34:00;6.22;;;1.98;;
70467;SDS011;57934;51.532;7.684;2022-07-29T06:36:26;10.88;;;2.10;;
70467;SDS011;57934;51.532;7.684;2022-07-29T06:38:52;5.32;;;2.40;;
70467;SDS011;57934;51.532;7.684;2022-07-29T06:41:18;5.35;;;1.90;;
70467;SDS011;57934;51.532;7.684;2022-07-29T06:43:45;4.38;;;1.77;;
70467;SDS011;57934;51.532;7.684;2022-07-29T06:46:12;3.88;;;1.73;;
70467;SDS011;57934;51.532;7.684;2022-07-29T06:48:40;5.55;;;1.92;;
70467;SDS011;57934;51.532;7.684;2022-07-29T06:51:10;7.50;;;2.80;;
70467;SDS011;57934;51.532;7.684;2022-07-29T06:53:37;5.07;;;1.90;;
70467;SDS011;57934;51.532;7.684;2022-07-29T06:56:04;7.50;;;1.80;;
70467;SDS011;57934;51.532;7.684;2022-07-29T06:58:31;6.78;;;1.85;;
70467;SDS011;57934;51.532;7.684;2022-07-29T07:00:58;7.00;;;2.25;;
70467;SDS011;57934;51.532;7.684;2022-07-29T07:03:26;15.63;;;2.53;;
70467;SDS011;57934;51.532;7.684;2022-07-29T07:05:52;8.38;;;1.80;;
70467;SDS011;57934;51.532;7.684;2022-07-29T07:08:19;7.13;;;1.63;;
70467;SDS011;57934;51.532;7.684;2022-07-29T07:10:46;7.05;;;1.63;;
70467;SDS011;57934;51.532;7.684;2022-07-29T07:13:12;5.15;;;2.05;;
70467;SDS011;57934;51.532;7.684;2022-07-29T07:15:38;7.70;;;2.30;;
70467;SDS011;57934;51.532;7.684;2022-07-29T07:18:05;5.25;;;1.88;;
70467;SDS011;57934;51.532;7.684;2022-07-29T07:20:32;4.97;;;1.77;;
70467;SDS011;57934;51.532;7.684;2022-07-29T07:22:59;7.03;;;1.83;;
70467;SDS011;57934;51.532;7.684;2022-07-29T07:25:25;7.15;;;1.83;;
70467;SDS011;57934;51.532;7.684;2022-07-29T07:27:51;5.57;;;1.90;;
70467;SDS011;57934;51.532;7.684;2022-07-29T07:30:17;5.22;;;1.90;;
70467;SDS011;57934;51.532;7.684;2022-07-29T07:32:43;4.28;;;1.52;;
70467;SDS011;57934;51.532;7.684;2022-07-29T07:35:09;4.90;;;1.77;;
70467;SDS011;57934;51.532;7.684;2022-07-29T07:37:36;4.93;;;1.98;;
70467;SDS011;57934;51.532;7.684;2022-07-29T07:40:03;5.85;;;2.30;;
70467;SDS011;57934;51.532;7.684;2022-07-29T07:42:30;7.28;;;2.08;;
70467;SDS011;57934;51.532;7.684;2022-07-29T07:44:56;7.72;;;2.00;;
70467;SDS011;57934;51.532;7.684;2022-07-29T07:47:22;6.47;;;1.88;;
70467;SDS011;57934;51.532;7.684;2022-07-29T07:49:50;4.10;;;1.80;;
70467;SDS011;57934;51.532;7.684;2022-07-29T07:52:17;7.90;;;2.08;;
70467;SDS011;57934;51.532;7.684;2022-07-29T07:54:44;4.82;;;1.95;;
70467;SDS011;57934;51.532;7.684;2022-07-29T07:57:11;8.88;;;2.33;;
70467;SDS011;57934;51.532;7.684;2022-07-29T07:59:38;6.95;;;2.13;;
70467;SDS011;57934;51.532;7.684;2022-07-29T08:02:04;6.28;;;2.08;;
70467;SDS011;57934;51.532;7.684;2022-07-29T08:04:31;8.02;;;2.10;;
70467;SDS011;57934;51.532;7.684;2022-07-29T08:06:58;7.75;;;2.17;;
70467;SDS011;57934;51.532;7.684;2022-07-29T08:09:25;7.80;;;2.30;;
70467;SDS011;57934;51.532;7.684;2022-07-29T08:11:52;5.93;;;2.20;;
70467;SDS011;57934;51.532;7.684;2022-07-29T08:14:18;5.97;;;2.10;;
70467;SDS011;57934;51.532;7.684;2022-07-29T08:16:45;5.68;;;2.10;;
70467;SDS011;57934;51.532;7.684;2022-07-29T08:19:11;6.43;;;1.90;;
70467;SDS011;57934;51.532;7.684;2022-07-29T08:21:37;7.50;;;2.20;;
70467;SDS011;57934;51.532;7.684;2022-07-29T08:24:04;5.78;;;1.73;;
70467;SDS011;57934;51.532;7.684;2022-07-29T08:26:49;4.07;;;2.00;;
70467;SDS011;57934;51.532;7.684;2022-07-29T08:29:15;8.23;;;1.90;;
70467;SDS011;57934;51.532;7.684;2022-07-29T08:31:42;7.85;;;2.30;;
70467;SDS011;57934;51.532;7.684;2022-07-29T08:34:08;8.13;;;1.90;;
70467;SDS011;57934;51.532;7.684;2022-07-29T08:36:34;9.95;;;1.95;;
70467;SDS011;57934;51.532;7.684;2022-07-29T08:39:01;4.35;;;1.98;;
70467;SDS011;57934;51.532;7.684;2022-07-29T08:41:28;7.53;;;2.38;;
70467;SDS011;57934;51.532;7.684;2022-07-29T08:43:54;7.55;;;2.05;;
70467;SDS011;57934;51.532;7.684;2022-07-29T08:46:20;10.25;;;1.92;;
70467;SDS011;57934;51.532;7.684;2022-07-29T08:48:47;6.43;;;2.22;;
70467;SDS011;57934;51.532;7.684;2022-07-29T08:51:15;7.10;;;2.00;;
70467;SDS011;57934;51.532;7.684;2022-07-29T08:53:43;8.05;;;2.15;;
70467;SDS011;57934;51.532;7.684;2022-07-29T08:56:11;5.38;;;2.55;;
70467;SDS011;57934;51.532;7.684;2022-07-29T08:58:39;4.90;;;2.03;;
70467;SDS011;57934;51.532;7.684;2022-07-29T09:01:06;6.90;;;2.20;;
70467;SDS011;57934;51.532;7.684;2022-07-29T09:03:34;7.68;;;2.08;;
70467;SDS011;57934;51.532;7.684;2022-07-29T09:06:02;8.15;;;2.28;;
70467;SDS011;57934;51.532;7.684;2022-07-29T09:08:30;6.95;;;2.55;;
70467;SDS011;57934;51.532;7.684;2022-07-29T09:10:57;6.22;;;2.30;;
70467;SDS011;57934;51.532;7.684;2022-07-29T09:13:24;5.07;;;2.13;;
70467;SDS011;57934;51.532;7.684;2022-07-29T09:15:50;8.02;;;2.33;;
70467;SDS011;57934;51.532;7.684;2022-07-29T09:21:06;3.67;;;1.80;;
70467;SDS011;57934;51.532;7.684;2022-07-29T09:24:11;3.58;;;1.80;;
70467;SDS011;57934;51.532;7.684;2022-07-29T09:26:41;5.15;;;1.92;;
70467;SDS011;57934;51.532;7.684;2022-07-29T09:29:10;6.05;;;2.08;;
70467;SDS011;57934;51.532;7.684;2022-07-29T09:31:39;7.60;;;2.03;;
70467;SDS011;57934;51.532;7.684;2022-07-29T09:34:07;6.82;;;1.90;;
70467;SDS011;57934;51.532;7.684;2022-07-29T09:36:41;4.50;;;2.17;;
70467;SDS011;57934;51.532;7.684;2022-07-29T09:39:08;7.25;;;2.63;;
70467;SDS011;57934;51.532;7.684;2022-07-29T09:44:47;5.95;;;2.00;;
70467;SDS011;57934;51.532;7.684;2022-07-29T09:47:17;4.55;;;2.30;;
70467;SDS011;57934;51.532;7.684;2022-07-29T09:49:57;3.75;;;2.10;;
70467;SDS011;57934;51.532;7.684;2022-07-29T09:52:28;9.75;;;2.10;;
70467;SDS011;57934;51.532;7.684;2022-07-29T09:55:07;9.73;;;2.30;;
70467;SDS011;57934;51.532;7.684;2022-07-29T09:57:35;4.00;;;1.88;;
70467;SDS011;57934;51.532;7.684;2022-07-29T10:00:12;5.72;;;2.10;;
70467;SDS011;57934;51.532;7.684;2022-07-29T10:02:41;6.97;;;1.98;;
70467;SDS011;57934;51.532;7.684;2022-07-29T10:07:52;7.72;;;1.95;;
70467;SDS011;57934;51.532;7.684;2022-07-29T10:10:23;5.18;;;1.83;;
70467;SDS011;57934;51.532;7.684;2022-07-29T10:12:54;5.55;;;2.30;;
70467;SDS011;57934;51.532;7.684;2022-07-29T10:15:23;6.68;;;1.98;;
70467;SDS011;57934;51.532;7.684;2022-07-29T10:17:52;4.43;;;2.00;;
70467;SDS011;57934;51.532;7.684;2022-07-29T10:20:20;5.47;;;1.90;;
70467;SDS011;57934;51.532;7.684;2022-07-29T10:22:48;4.18;;;1.80;;
70467;SDS011;57934;51.532;7.684;2022-07-29T10:25:15;13.07;;;2.75;;
70467;SDS011;57934;51.532;7.684;2022-07-29T10:27:45;9.25;;;2.72;;
70467;SDS011;57934;51.532;7.684;2022-07-29T10:30:16;6.03;;;2.30;;
70467;SDS011;57934;51.532;7.684;2022-07-29T10:38:07;5.18;;;1.75;;
70467;SDS011;57934;51.532;7.684;2022-07-29T10:44:03;9.73;;;2.22;;
70467;SDS011;57934;51.532;7.684;2022-07-29T10:46:39;5.70;;;2.00;;
70467;SDS011;57934;51.532;7.684;2022-07-29T10:54:36;6.07;;;2.00;;
70467;SDS011;57934;51.532;7.684;2022-07-29T11:02:41;5.82;;;2.95;;
70467;SDS011;57934;51.532;7.684;2022-07-29T11:05:09;9.60;;;2.80;;
70467;SDS011;57934;51.532;7.684;2022-07-29T11:07:38;6.75;;;2.90;;
70467;SDS011;57934;51.532;7.684;2022-07-29T11:15:12;11.02;;;3.10;;
70467;SDS011;57934;51.532;7.684;2022-07-29T11:34:24;8.02;;;2.92;;
70467;SDS011;57934;51.532;7.684;2022-07-29T11:37:26;10.43;;;3.00;;
70467;SDS011;57934;51.532;7.684;2022-07-29T11:44:57;7.20;;;3.33;;
70467;SDS011;57934;51.532;7.684;2022-07-29T11:47:31;6.45;;;3.05;;
70467;SDS011;57934;51.532;7.684;2022-07-29T11:50:00;8.35;;;3.40;;
70467;SDS011;57934;51.532;7.684;2022-07-29T11:52:34;9.27;;;3.15;;
70467;SDS011;57934;51.532;7.684;2022-07-29T11:55:15;6.73;;;3.10;;
70467;SDS011;57934;51.532;7.684;2022-07-29T11:57:56;8.00;;;2.55;;
70467;SDS011;57934;51.532;7.684;2022-07-29T12:02:57;5.75;;;2.70;;
70467;SDS011;57934;51.532;7.684;2022-07-29T12:05:31;7.88;;;2.50;;
70467;SDS011;57934;51.532;7.684;2022-07-29T12:08:21;4.68;;;2.33;;
70467;SDS011;57934;51.532;7.684;2022-07-29T12:10:53;5.20;;;2.20;;
70467;SDS011;57934;51.532;7.684;2022-07-29T12:13:20;8.57;;;3.30;;
70467;SDS011;57934;51.532;7.684;2022-07-29T12:15:56;8.80;;;2.45;;
70467;SDS011;57934;51.532;7.684;2022-07-29T12:18:24;7.15;;;2.75;;
70467;SDS011;57934;51.532;7.684;2022-07-29T12:21:00;11.77;;;2.80;;
70467;SDS011;57934;51.532;7.684;2022-07-29T12:23:31;5.68;;;2.33;;
70467;SDS011;57934;51.532;7.684;2022-07-29T12:25:58;8.20;;;2.75;;
70467;SDS011;57934;51.532;7.684;2022-07-29T12:28:25;9.52;;;2.50;;
70467;SDS011;57934;51.532;7.684;2022-07-29T12:30:51;12.00;;;3.08;;
70467;SDS011;57934;51.532;7.684;2022-07-29T12:33:28;7.03;;;2.70;;
70467;SDS011;57934;51.532;7.684;2022-07-29T12:35:58;8.05;;;2.88;;
70467;SDS011;57934;51.532;7.684;2022-07-29T12:38:27;6.55;;;2.65;;
70467;SDS011;57934;51.532;7.684;2022-07-29T12:40:58;10.77;;;3.05;;
70467;SDS011;57934;51.532;7.684;2022-07-29T12:43:32;7.20;;;2.40;;
70467;SDS011;57934;51.532;7.684;2022-07-29T12:46:10;8.07;;;2.83;;
70467;SDS011;57934;51.532;7.684;2022-07-29T12:48:38;7.60;;;2.40;;
70467;SDS011;57934;51.532;7.684;2022-07-29T12:51:06;6.90;;;2.53;;
70467;SDS011;57934;51.532;7.684;2022-07-29T12:53:34;11.45;;;3.08;;
70467;SDS011;57934;51.532;7.684;2022-07-29T12:56:02;9.82;;;2.40;;
70467;SDS011;57934;51.532;7.684;2022-07-29T12:58:33;6.63;;;2.47;;
70467;SDS011;57934;51.532;7.684;2022-07-29T13:03:53;5.65;;;2.35;;
70467;SDS011;57934;51.532;7.684;2022-07-29T13:06:33;7.97;;;2.55;;
70467;SDS011;57934;51.532;7.684;2022-07-29T13:11:38;6.28;;;2.35;;
70467;SDS011;57934;51.532;7.684;2022-07-29T13:14:07;3.90;;;1.90;;
70467;SDS011;57934;51.532;7.684;2022-07-29T13:16:36;8.30;;;2.33;;
70467;SDS011;57934;51.532;7.684;2022-07-29T13:19:12;8.93;;;2.13;;
70467;SDS011;57934;51.532;7.684;2022-07-29T13:21:38;4.28;;;2.40;;
70467;SDS011;57934;51.532;7.684;2022-07-29T13:24:05;5.35;;;2.25;;
70467;SDS011;57934;51.532;7.684;2022-07-29T13:26:32;7.32;;;2.45;;
70467;SDS011;57934;51.532;7.684;2022-07-29T13:28:58;7.63;;;2.50;;
70467;SDS011;57934;51.532;7.684;2022-07-29T13:31:25;8.60;;;2.50;;
70467;SDS011;57934;51.532;7.684;2022-07-29T13:33:51;8.65;;;2.58;;
70467;SDS011;57934;51.532;7.684;2022-07-29T13:36:17;7.43;;;2.92;;
70467;SDS011;57934;51.532;7.684;2022-07-29T13:38:43;5.63;;;2.95;;
70467;SDS011;57934;51.532;7.684;2022-07-29T13:41:09;5.55;;;2.85;;
70467;SDS011;57934;51.532;7.684;2022-07-29T13:43:35;3.53;;;2.53;;
70467;SDS011;57934;51.532;7.684;2022-07-29T13:46:01;8.88;;;2.92;;
70467;SDS011;57934;51.532;7.684;2022-07-29T13:48:27;5.90;;;2.70;;
70467;SDS011;57934;51.532;7.684;2022-07-29T13:50:55;13.77;;;3.60;;
70467;SDS011;57934;51.532;7.684;2022-07-29T13:53:22;8.98;;;3.17;;
70467;SDS011;57934;51.532;7.684;2022-07-29T13:55:48;9.18;;;3.17;;
70467;SDS011;57934;51.532;7.684;2022-07-29T13:58:14;12.85;;;3.53;;
70467;SDS011;57934;51.532;7.684;2022-07-29T14:00:40;8.98;;;3.60;;
70467;SDS011;57934;51.532;7.684;2022-07-29T14:03:07;10.73;;;3.63;;
70467;SDS011;57934;51.532;7.684;2022-07-29T14:05:33;7.28;;;4.05;;
70467;SDS011;57934;51.532;7.684;2022-07-29T14:07:59;10.07;;;4.72;;
70467;SDS011;57934;51.532;7.684;2022-07-29T14:10:26;9.02;;;4.45;;
70467;SDS011;57934;51.532;7.684;2022-07-29T14:12:52;5.75;;;4.47;;
70467;SDS011;57934;51.532;7.684;2022-07-29T14:15:18;8.90;;;4.63;;
70467;SDS011;57934;51.532;7.684;2022-07-29T14:17:44;12.65;;;4.45;;
70467;SDS011;57934;51.532;7.684;2022-07-29T14:20:10;10.32;;;4.25;;
70467;SDS011;57934;51.532;7.684;2022-07-29T14:22:37;6.50;;;4.43;;
70467;SDS011;57934;51.532;7.684;2022-07-29T14:25:04;9.45;;;4.13;;
70467;SDS011;57934;51.532;7.684;2022-07-29T14:27:32;9.57;;;4.10;;
70467;SDS011;57934;51.532;7.684;2022-07-29T14:29:58;12.73;;;4.18;;
70467;SDS011;57934;51.532;7.684;2022-07-29T14:32:24;12.45;;;4.10;;
70467;SDS011;57934;51.532;7.684;2022-07-29T14:34:50;8.93;;;3.85;;
70467;SDS011;57934;51.532;7.684;2022-07-29T14:37:16;9.27;;;3.70;;
70467;SDS011;57934;51.532;7.684;2022-07-29T14:39:42;5.10;;;3.80;;
70467;SDS011;57934;51.532;7.684;2022-07-29T14:42:09;8.70;;;4.10;;
70467;SDS011;57934;51.532;7.684;2022-07-29T14:44:37;9.48;;;4.20;;
70467;SDS011;57934;51.532;7.684;2022-07-29T14:47:03;8.55;;;3.63;;
70467;SDS011;57934;51.532;7.684;2022-07-29T14:49:29;8.63;;;3.88;;
70467;SDS011;57934;51.532;7.684;2022-07-29T14:51:55;10.63;;;3.88;;
70467;SDS011;57934;51.532;7.684;2022-07-29T14:54:21;7.72;;;3.80;;
70467;SDS011;57934;51.532;7.684;2022-07-29T14:56:47;6.75;;;3.60;;
70467;SDS011;57934;51.532;7.684;2022-07-29T14:59:16;8.13;;;3.88;;
70467;SDS011;57934;51.532;7.684;2022-07-29T15:01:42;6.20;;;3.28;;
70467;SDS011;57934;51.532;7.684;2022-07-29T15:04:08;12.45;;;4.05;;
70467;SDS011;57934;51.532;7.684;2022-07-29T15:06:34;4.85;;;3.58;;
70467;SDS011;57934;51.532;7.684;2022-07-29T15:09:02;5.95;;;3.10;;
70467;SDS011;57934;51.532;7.684;2022-07-29T15:11:28;8.13;;;3.63;;
70467;SDS011;57934;51.532;7.684;2022-07-29T15:13:54;13.90;;;3.55;;
70467;SDS011;57934;51.532;7.684;2022-07-29T15:16:20;6.32;;;3.08;;
70467;SDS011;57934;51.532;7.684;2022-07-29T15:18:46;5.78;;;3.10;;
70467;SDS011;57934;51.532;7.684;2022-07-29T15:21:12;8.10;;;3.65;;
70467;SDS011;57934;51.532;7.684;2022-07-29T15:23:39;6.70;;;3.25;;
70467;SDS011;57934;51.532;7.684;2022-07-29T15:26:05;9.60;;;3.42;;
70467;SDS011;57934;51.532;7.684;2022-07-29T15:28:31;8.05;;;3.22;;
70467;SDS011;57934;51.532;7.684;2022-07-29T15:30:57;6.97;;;3.22;;
70467;SDS011;57934;51.532;7.684;2022-07-29T15:33:23;6.68;;;3.60;;
70467;SDS011;57934;51.532;7.684;2022-07-29T15:35:51;11.32;;;3.65;;
70467;SDS011;57934;51.532;7.684;2022-07-29T15:38:17;10.65;;;3.45;;
70467;SDS011;57934;51.532;7.684;2022-07-29T15:40:43;10.70;;;3.50;;
70467;SDS011;57934;51.532;7.684;2022-07-29T15:43:11;9.77;;;3.13;;
70467;SDS011;57934;51.532;7.684;2022-07-29T15:45:38;7.60;;;3.17;;
70467;SDS011;57934;51.532;7.684;2022-07-29T15:48:05;8.75;;;3.50;;
70467;SDS011;57934;51.532;7.684;2022-07-29T15:50:33;7.22;;;3.10;;
70467;SDS011;57934;51.532;7.684;2022-07-29T15:52:59;8.63;;;2.70;;
70467;SDS011;57934;51.532;7.684;2022-07-29T15:55:25;4.18;;;2.60;;
70467;SDS011;57934;51.532;7.684;2022-07-29T15:57:51;7.97;;;3.00;;
70467;SDS011;57934;51.532;7.684;2022-07-29T16:00:18;4.28;;;2.70;;
70467;SDS011;57934;51.532;7.684;2022-07-29T16:02:44;8.13;;;2.72;;
70467;SDS011;57934;51.532;7.684;2022-07-29T16:05:10;6.32;;;2.70;;